createdAt,value
2023-03-29T00:01:10.402Z,83.00
2023-03-29T00:03:42.177Z,83.40
2023-03-29T00:06:10.253Z,84.00
2023-03-29T00:08:40.581Z,84.90
2023-03-29T00:11:08.006Z,84.70
2023-03-29T00:13:39.042Z,84.90
2023-03-29T00:16:06.326Z,85.10
2023-03-29T00:18:33.878Z,85.10
2023-03-29T00:21:07.392Z,85.20
2023-03-29T00:23:34.911Z,85.40
2023-03-29T00:26:07.778Z,85.60
2023-03-29T00:28:45.444Z,85.50
2023-03-29T00:31:16.407Z,85.50
2023-03-29T00:33:51.081Z,85.50
2023-03-29T00:36:22.422Z,85.20
2023-03-29T00:38:50.683Z,85.10
2023-03-29T00:41:17.900Z,85.30
2023-03-29T00:44:02.120Z,85.30
2023-03-29T00:46:35.319Z,85.40
2023-03-29T00:49:13.057Z,85.70
2023-03-29T00:51:41.711Z,85.80
2023-03-29T00:54:17.700Z,86.10
2023-03-29T00:56:49.883Z,86.80
2023-03-29T00:59:21.877Z,86.50
2023-03-29T01:01:58.555Z,86.60
2023-03-29T01:04:33.707Z,86.70
2023-03-29T01:07:14.197Z,87.00
2023-03-29T01:09:46.313Z,87.20
2023-03-29T01:12:22.365Z,87.30
2023-03-29T01:14:55.598Z,87.40
2023-03-29T01:17:26.068Z,87.40
2023-03-29T01:19:59.371Z,87.60
2023-03-29T01:22:38.964Z,87.60
2023-03-29T01:25:34.146Z,87.80
2023-03-29T01:28:06.335Z,88.00
2023-03-29T01:30:50.694Z,88.20
2023-03-29T01:33:28.809Z,88.40
2023-03-29T01:36:15.543Z,88.60
2023-03-29T01:38:58.550Z,88.70
2023-03-29T01:41:48.747Z,89.00
2023-03-29T01:45:05.025Z,89.10
2023-03-29T01:47:48.484Z,89.30
2023-03-29T01:50:34.651Z,89.50
2023-03-29T01:53:21.471Z,89.60
2023-03-29T01:55:59.146Z,89.70
2023-03-29T01:58:39.105Z,89.80
2023-03-29T02:01:11.019Z,90.00
2023-03-29T02:03:47.361Z,89.90
2023-03-29T02:06:21.175Z,89.90
2023-03-29T02:08:50.130Z,89.90
2023-03-29T02:11:21.024Z,89.80
2023-03-29T02:13:48.770Z,89.80
2023-03-29T02:16:17.245Z,89.60
2023-03-29T02:18:47.923Z,89.20
2023-03-29T02:21:38.639Z,88.70
2023-03-29T02:24:12.101Z,88.40
2023-03-29T02:26:42.726Z,88.10
2023-03-29T02:29:10.008Z,88.10
2023-03-29T02:31:50.049Z,88.30
2023-03-29T02:34:33.425Z,88.20
2023-03-29T02:37:07.472Z,88.30
2023-03-29T02:39:35.873Z,88.30
2023-03-29T02:42:09.547Z,88.10
2023-03-29T02:44:43.313Z,88.30
2023-03-29T02:47:33.402Z,89.00
2023-03-29T02:50:00.975Z,88.80
2023-03-29T02:52:36.764Z,89.10
2023-03-29T02:55:07.744Z,89.40
2023-03-29T02:57:38.246Z,90.00
2023-03-29T03:00:10.576Z,90.20
2023-03-29T03:02:41.999Z,90.30
2023-03-29T03:05:12.908Z,90.40
2023-03-29T03:07:40.866Z,90.60
2023-03-29T03:10:10.223Z,90.70
2023-03-29T03:12:38.875Z,90.80
2023-03-29T03:15:08.719Z,91.00
2023-03-29T03:17:40.465Z,91.10
2023-03-29T03:20:14.955Z,91.10
2023-03-29T03:22:45.892Z,91.10
2023-03-29T03:25:18.444Z,91.10
2023-03-29T03:27:47.177Z,91.20
2023-03-29T03:30:19.245Z,91.10
2023-03-29T03:33:08.137Z,91.00
2023-03-29T03:35:57.405Z,90.90
2023-03-29T03:38:28.699Z,90.70
2023-03-29T03:41:02.011Z,90.70
2023-03-29T03:43:32.764Z,90.60
2023-03-29T03:46:00.402Z,90.60
2023-03-29T03:48:27.961Z,90.50
2023-03-29T03:51:17.628Z,90.60
2023-03-29T03:53:45.919Z,90.50
2023-03-29T03:56:13.578Z,90.50
2023-03-29T03:59:02.132Z,90.50
2023-03-29T04:01:35.898Z,90.40
2023-03-29T04:04:14.551Z,90.50
2023-03-29T04:06:54.713Z,90.60
2023-03-29T04:09:28.617Z,90.80
2023-03-29T04:12:12.085Z,91.00
2023-03-29T04:14:40.991Z,91.00
2023-03-29T04:17:15.048Z,91.10
2023-03-29T04:19:59.214Z,91.10
2023-03-29T04:22:30.007Z,91.10
2023-03-29T04:24:58.813Z,91.10
2023-03-29T04:27:45.345Z,91.00
2023-03-29T04:30:23.962Z,90.80
2023-03-29T04:33:20.163Z,90.70
2023-03-29T04:36:00.823Z,90.60
2023-03-29T04:38:36.278Z,90.50
2023-03-29T04:41:05.293Z,90.50
2023-03-29T04:43:50.252Z,90.50
2023-03-29T04:46:25.924Z,90.30
2023-03-29T04:49:14.040Z,90.20
2023-03-29T04:51:49.932Z,90.30
2023-03-29T04:54:21.293Z,90.30
2023-03-29T04:57:08.186Z,90.20
2023-03-29T04:59:43.623Z,90.10
2023-03-29T05:02:20.763Z,90.00
2023-03-29T05:04:49.870Z,89.80
2023-03-29T05:07:20.239Z,89.80
2023-03-29T05:09:48.012Z,89.60
2023-03-29T05:12:15.650Z,89.80
2023-03-29T05:14:55.144Z,89.80
2023-03-29T05:17:27.738Z,89.80
2023-03-29T05:20:02.122Z,90.00
2023-03-29T05:22:33.880Z,90.10
2023-03-29T05:25:01.080Z,90.10
2023-03-29T05:27:30.717Z,90.20
2023-03-29T05:30:02.437Z,90.20
2023-03-29T05:32:47.020Z,90.20
2023-03-29T05:35:27.222Z,90.30
2023-03-29T05:37:56.500Z,90.30
2023-03-29T05:40:26.671Z,90.10
2023-03-29T05:43:28.079Z,90.00
2023-03-29T05:46:05.308Z,89.80
2023-03-29T05:48:38.609Z,89.30
2023-03-29T05:51:10.882Z,88.70
2023-03-29T05:53:38.284Z,88.20
2023-03-29T05:56:08.671Z,88.00
2023-03-29T05:58:36.629Z,87.80
2023-03-29T06:01:15.802Z,87.30
2023-03-29T06:03:56.753Z,86.80
2023-03-29T06:06:29.879Z,86.70
2023-03-29T06:08:59.637Z,86.50
2023-03-29T06:11:52.595Z,86.10
2023-03-29T06:14:39.039Z,86.00
2023-03-29T06:17:19.393Z,85.70
2023-03-29T06:19:49.750Z,85.20
2023-03-29T06:22:20.411Z,84.80
2023-03-29T06:24:48.259Z,84.90
2023-03-29T06:27:28.260Z,84.70
2023-03-29T06:29:58.342Z,84.40
2023-03-29T06:32:35.177Z,84.20
2023-03-29T06:35:18.745Z,83.90
2023-03-29T06:37:55.265Z,83.30
2023-03-29T06:40:33.096Z,82.80
2023-03-29T06:43:02.239Z,82.00
2023-03-29T06:45:38.942Z,82.00
2023-03-29T06:48:12.702Z,81.60
2023-03-29T06:50:41.347Z,81.20
2023-03-29T06:53:17.354Z,80.70
2023-03-29T06:55:52.886Z,80.30
2023-03-29T06:58:46.157Z,80.10
2023-03-29T07:01:32.115Z,79.50
2023-03-29T07:04:09.982Z,79.40
2023-03-29T07:07:07.773Z,79.20
2023-03-29T07:09:39.871Z,79.00
2023-03-29T07:12:30.364Z,79.00
2023-03-29T07:15:13.219Z,78.90
2023-03-29T07:17:59.307Z,78.10
2023-03-29T07:20:27.397Z,77.60
2023-03-29T07:23:06.853Z,76.60
2023-03-29T07:25:34.303Z,76.40
2023-03-29T07:28:01.649Z,76.00
2023-03-29T07:30:32.011Z,75.40
2023-03-29T07:33:12.773Z,74.80
2023-03-29T07:35:48.073Z,74.50
2023-03-29T07:38:15.977Z,73.00
2023-03-29T07:40:52.851Z,72.60
2023-03-29T07:43:41.929Z,73.20
2023-03-29T07:46:11.247Z,73.00
2023-03-29T07:48:39.486Z,73.40
2023-03-29T07:51:16.501Z,73.10
2023-03-29T07:53:54.431Z,72.80
2023-03-29T07:56:39.834Z,73.50
2023-03-29T07:59:17.856Z,73.90
2023-03-29T08:01:50.764Z,73.50
2023-03-29T08:04:48.083Z,73.50
2023-03-29T08:07:18.878Z,73.60
2023-03-29T08:10:17.291Z,74.10
2023-03-29T08:12:53.418Z,74.40
2023-03-29T08:15:28.350Z,73.90
2023-03-29T08:17:55.800Z,73.50
2023-03-29T08:20:23.287Z,73.20
2023-03-29T08:22:55.386Z,72.60
2023-03-29T08:25:48.752Z,72.20
2023-03-29T08:28:19.122Z,71.50
2023-03-29T08:30:50.847Z,70.80
2023-03-29T08:33:18.541Z,70.60
2023-03-29T08:35:54.026Z,69.60
2023-03-29T08:38:31.284Z,69.40
2023-03-29T08:41:02.530Z,68.50
2023-03-29T08:44:02.470Z,68.30
2023-03-29T08:46:51.955Z,68.30
2023-03-29T08:49:32.071Z,68.20
2023-03-29T08:52:06.458Z,68.50
2023-03-29T08:54:50.173Z,69.10
2023-03-29T08:57:43.742Z,70.20
2023-03-29T09:00:27.506Z,68.90
2023-03-29T09:02:59.262Z,68.50
2023-03-29T09:05:36.448Z,68.70
2023-03-29T09:08:31.859Z,67.80
2023-03-29T09:11:25.679Z,66.90
2023-03-29T09:14:45.147Z,66.40
2023-03-29T09:17:29.813Z,65.20
2023-03-29T09:20:11.356Z,63.50
2023-03-29T09:22:50.797Z,62.50
2023-03-29T09:25:53.489Z,62.70
2023-03-29T09:28:39.277Z,61.00
2023-03-29T09:31:16.790Z,58.70
2023-03-29T09:34:03.882Z,57.50
2023-03-29T09:36:54.663Z,57.50
2023-03-29T09:39:23.279Z,58.20
2023-03-29T09:42:05.415Z,58.10
2023-03-29T09:44:41.937Z,59.10
2023-03-29T09:47:27.155Z,57.30
2023-03-29T09:49:59.625Z,56.70
2023-03-29T09:52:30.553Z,57.80
2023-03-29T09:55:08.375Z,57.40
2023-03-29T09:57:56.288Z,56.90
2023-03-29T10:00:25.110Z,55.70
2023-03-29T10:03:10.801Z,56.10
2023-03-29T10:05:55.288Z,56.00
2023-03-29T10:08:30.623Z,55.70
2023-03-29T10:11:02.012Z,55.80
2023-03-29T10:13:43.985Z,53.40
2023-03-29T10:16:25.942Z,52.80
2023-03-29T10:18:55.226Z,52.60
2023-03-29T10:21:25.764Z,53.10
2023-03-29T10:23:59.755Z,52.80
2023-03-29T10:26:39.322Z,53.00
2023-03-29T10:29:08.660Z,53.30
2023-03-29T10:31:41.896Z,54.00
2023-03-29T10:34:13.159Z,53.40
2023-03-29T10:36:43.788Z,53.40
2023-03-29T10:39:15.298Z,53.20
2023-03-29T10:41:45.662Z,53.20
2023-03-29T10:44:33.291Z,52.90
2023-03-29T10:47:17.087Z,53.20
2023-03-29T10:49:50.851Z,53.20
2023-03-29T10:52:18.042Z,54.10
2023-03-29T10:54:49.135Z,54.10
2023-03-29T10:57:23.701Z,54.60
2023-03-29T11:00:01.305Z,55.40
2023-03-29T11:02:44.422Z,55.00
2023-03-29T11:05:24.853Z,55.60
2023-03-29T11:08:09.112Z,56.50
2023-03-29T11:10:53.596Z,56.90
2023-03-29T11:14:00.694Z,56.80
2023-03-29T11:16:51.383Z,56.60
2023-03-29T11:19:31.622Z,56.40
2023-03-29T11:22:23.313Z,56.40
2023-03-29T11:25:20.160Z,56.50
2023-03-29T11:27:53.244Z,55.90
2023-03-29T11:30:29.472Z,56.30
2023-03-29T11:33:30.217Z,55.50
2023-03-29T11:36:13.026Z,54.70
2023-03-29T11:39:05.372Z,53.70
2023-03-29T11:41:40.501Z,53.60
2023-03-29T11:44:15.133Z,53.70
2023-03-29T11:46:51.064Z,52.60
2023-03-29T11:49:37.476Z,51.80
2023-03-29T11:52:07.021Z,50.50
2023-03-29T11:54:46.287Z,50.60
2023-03-29T11:57:24.421Z,50.60
2023-03-29T12:00:06.273Z,50.40
2023-03-29T12:02:48.003Z,49.60
2023-03-29T12:05:36.343Z,49.60
2023-03-29T12:08:06.571Z,48.90
2023-03-29T12:10:44.388Z,49.40
2023-03-29T12:13:33.930Z,49.70
2023-03-29T12:16:11.548Z,50.00
2023-03-29T12:18:45.824Z,50.70
2023-03-29T12:21:27.046Z,51.30
2023-03-29T12:23:55.319Z,50.70
2023-03-29T12:26:46.089Z,50.40
2023-03-29T12:29:52.964Z,49.90
2023-03-29T12:32:41.984Z,49.60
2023-03-29T12:35:44.207Z,49.40
2023-03-29T12:38:49.304Z,48.50
2023-03-29T12:41:37.898Z,49.30
2023-03-29T12:44:51.345Z,49.60
2023-03-29T12:47:26.994Z,50.40
2023-03-29T12:49:57.705Z,50.80
2023-03-29T12:52:27.625Z,50.70
2023-03-29T12:55:00.060Z,50.50
2023-03-29T12:57:41.106Z,50.90
2023-03-29T13:00:37.082Z,50.60
2023-03-29T13:03:19.803Z,50.30
2023-03-29T13:05:47.317Z,50.00
2023-03-29T13:08:29.936Z,48.70
2023-03-29T13:10:59.480Z,49.00
2023-03-29T13:13:33.516Z,48.90
2023-03-29T13:16:18.042Z,49.10
2023-03-29T13:18:47.157Z,49.30
2023-03-29T13:21:38.914Z,50.20
2023-03-29T13:24:24.426Z,50.60
2023-03-29T13:27:03.198Z,50.70
2023-03-29T13:29:51.419Z,51.60
2023-03-29T13:32:41.603Z,51.90
2023-03-29T13:35:29.609Z,52.30
2023-03-29T13:38:32.099Z,52.60
2023-03-29T13:41:08.270Z,52.60
2023-03-29T13:43:57.922Z,52.20
2023-03-29T13:46:44.604Z,51.60
2023-03-29T13:49:19.856Z,51.10
2023-03-29T13:52:15.126Z,51.50
2023-03-29T13:54:58.150Z,52.60
2023-03-29T13:57:31.696Z,52.90
2023-03-29T14:00:23.678Z,52.90
2023-03-29T14:02:58.083Z,53.70
2023-03-29T14:05:32.608Z,54.40
2023-03-29T14:08:23.593Z,55.30
2023-03-29T14:10:51.133Z,55.50
2023-03-29T14:13:22.540Z,55.70
2023-03-29T14:15:55.680Z,55.70
2023-03-29T14:18:27.875Z,55.40
2023-03-29T14:20:57.588Z,55.70
2023-03-29T14:23:27.385Z,55.80
2023-03-29T14:25:54.974Z,56.60
2023-03-29T14:28:27.182Z,56.50
2023-03-29T14:30:55.493Z,57.30
2023-03-29T14:33:28.084Z,57.60
2023-03-29T14:36:00.306Z,57.50
2023-03-29T14:38:27.891Z,57.20
2023-03-29T14:40:59.725Z,56.60
2023-03-29T14:43:30.360Z,56.30
2023-03-29T14:46:07.494Z,56.60
2023-03-29T14:48:37.558Z,57.20
2023-03-29T14:51:07.689Z,56.80
2023-03-29T14:53:38.078Z,57.50
2023-03-29T14:56:07.063Z,58.10
2023-03-29T14:58:37.595Z,58.70
2023-03-29T15:01:16.594Z,58.80
2023-03-29T15:04:05.042Z,58.40
2023-03-29T15:06:38.272Z,57.80
2023-03-29T15:09:17.048Z,58.10
2023-03-29T15:11:57.638Z,58.70
2023-03-29T15:14:27.581Z,58.70
2023-03-29T15:17:02.655Z,58.80
2023-03-29T15:19:29.910Z,58.80
2023-03-29T15:21:58.424Z,58.20
2023-03-29T15:24:32.254Z,58.20
2023-03-29T15:27:17.252Z,58.40
2023-03-29T15:29:46.945Z,58.80
2023-03-29T15:32:33.628Z,59.10
2023-03-29T15:35:13.330Z,59.10
2023-03-29T15:38:44.595Z,59.00
2023-03-29T15:41:04.153Z,59.00
2023-03-29T15:43:31.607Z,60.00
2023-03-29T15:45:58.874Z,58.90
2023-03-29T15:48:33.899Z,58.90
2023-03-29T15:51:05.715Z,59.70
2023-03-29T15:53:33.939Z,59.40
2023-03-29T15:56:03.977Z,60.00
2023-03-29T15:58:32.523Z,60.70
2023-03-29T16:01:13.702Z,60.30
2023-03-29T16:03:47.890Z,61.00
2023-03-29T16:06:17.834Z,61.40
2023-03-29T16:08:45.944Z,61.60
2023-03-29T16:11:13.538Z,61.80
2023-03-29T16:13:40.752Z,61.60
2023-03-29T16:16:10.394Z,61.70
2023-03-29T16:18:40.990Z,61.40
2023-03-29T16:21:13.650Z,61.50
2023-03-29T16:23:41.974Z,61.00
2023-03-29T16:26:16.496Z,61.00
2023-03-29T16:28:44.084Z,60.70
2023-03-29T16:31:13.337Z,61.10
2023-03-29T16:33:42.973Z,61.80
2023-03-29T16:36:13.767Z,62.10
2023-03-29T16:38:43.495Z,62.70
2023-03-29T16:41:17.834Z,62.30
2023-03-29T16:43:48.183Z,62.70
2023-03-29T16:46:18.142Z,63.10
2023-03-29T16:48:49.216Z,63.80
2023-03-29T16:51:16.303Z,64.20
2023-03-29T16:53:43.188Z,64.80
2023-03-29T16:56:12.827Z,65.50
2023-03-29T16:58:40.011Z,66.20
2023-03-29T17:01:16.107Z,66.90
2023-03-29T17:03:43.630Z,67.60
2023-03-29T17:06:12.516Z,68.10
2023-03-29T17:08:40.210Z,67.70
2023-03-29T17:11:07.501Z,67.20
2023-03-29T17:13:34.451Z,67.20
2023-03-29T17:16:01.561Z,67.10
2023-03-29T17:18:29.376Z,67.30
2023-03-29T17:20:58.581Z,67.40
2023-03-29T17:23:26.594Z,67.60
2023-03-29T17:25:56.052Z,67.90
2023-03-29T17:28:26.600Z,67.90
2023-03-29T17:30:53.511Z,68.30
2023-03-29T17:33:26.387Z,68.40
2023-03-29T17:35:53.841Z,68.70
2023-03-29T17:38:27.207Z,69.20
2023-03-29T17:40:56.795Z,69.40
2023-03-29T17:43:23.990Z,69.80
2023-03-29T17:45:53.040Z,70.10
2023-03-29T17:48:20.736Z,70.50
2023-03-29T17:50:47.824Z,71.10
2023-03-29T17:53:14.880Z,71.30
2023-03-29T17:55:42.356Z,72.10
2023-03-29T17:58:09.202Z,72.60
2023-03-29T18:00:36.454Z,73.10
2023-03-29T18:03:03.825Z,73.40
2023-03-29T18:05:33.044Z,73.70
2023-03-29T18:08:02.787Z,73.80
2023-03-29T18:10:29.985Z,73.90
2023-03-29T18:12:57.409Z,74.10
2023-03-29T18:15:24.306Z,74.30
2023-03-29T18:17:51.248Z,74.60
2023-03-29T18:20:18.440Z,74.90
2023-03-29T18:22:45.840Z,75.30
2023-03-29T18:25:12.917Z,75.50
2023-03-29T18:27:40.432Z,76.00
2023-03-29T18:30:08.769Z,76.40
2023-03-29T18:32:36.724Z,76.90
2023-03-29T18:35:06.637Z,76.60
2023-03-29T18:37:36.650Z,76.80
2023-03-29T18:40:08.153Z,77.00
2023-03-29T18:42:35.211Z,77.00
2023-03-29T18:45:02.635Z,77.00
2023-03-29T18:47:29.570Z,77.10
2023-03-29T18:49:57.921Z,77.40
2023-03-29T18:52:24.766Z,77.30
2023-03-29T18:54:52.058Z,77.30
2023-03-29T18:57:19.408Z,77.30
2023-03-29T18:59:46.395Z,77.70
2023-03-29T19:02:14.407Z,78.00
2023-03-29T19:04:41.694Z,78.00
2023-03-29T19:07:09.232Z,78.10
2023-03-29T19:09:36.483Z,78.70
2023-03-29T19:12:03.607Z,79.00
2023-03-29T19:14:33.008Z,79.60
2023-03-29T19:17:00.307Z,80.00
2023-03-29T19:19:28.214Z,80.50
2023-03-29T19:21:58.301Z,81.00
2023-03-29T19:24:27.511Z,81.30
2023-03-29T19:26:57.796Z,81.60
2023-03-29T19:29:26.075Z,82.10
2023-03-29T19:31:54.852Z,82.80
2023-03-29T19:34:23.786Z,83.30
2023-03-29T19:36:52.149Z,84.20
2023-03-29T19:39:19.290Z,84.50
2023-03-29T19:41:46.336Z,84.70
2023-03-29T19:44:13.731Z,84.80
2023-03-29T19:46:41.153Z,85.20
2023-03-29T19:49:13.862Z,85.40
2023-03-29T19:51:42.200Z,85.70
2023-03-29T19:54:15.874Z,85.80
2023-03-29T19:56:46.391Z,86.00
2023-03-29T19:59:17.712Z,86.10
2023-03-29T20:01:51.323Z,86.00
2023-03-29T20:04:19.960Z,86.10
2023-03-29T20:06:47.223Z,86.00
2023-03-29T20:09:18.642Z,86.40
2023-03-29T20:11:47.125Z,86.40
2023-03-29T20:14:14.242Z,86.70
2023-03-29T20:16:43.773Z,86.50
2023-03-29T20:19:10.920Z,86.60
2023-03-29T20:21:38.501Z,86.60
2023-03-29T20:24:09.686Z,86.50
2023-03-29T20:26:36.854Z,86.60
2023-03-29T20:29:03.965Z,86.60
2023-03-29T20:31:33.991Z,86.60
2023-03-29T20:34:01.018Z,86.50
2023-03-29T20:36:30.867Z,86.80
2023-03-29T20:38:59.431Z,87.00
2023-03-29T20:41:26.883Z,87.40
2023-03-29T20:44:00.104Z,87.70
2023-03-29T20:46:33.581Z,88.10
2023-03-29T20:49:02.162Z,88.50
2023-03-29T20:51:32.473Z,88.50
2023-03-29T20:54:05.095Z,88.80
2023-03-29T20:56:34.938Z,88.90
2023-03-29T20:59:03.235Z,89.20
2023-03-29T21:01:30.989Z,89.50
2023-03-29T21:04:00.657Z,89.80
2023-03-29T21:06:27.666Z,89.80
2023-03-29T21:08:54.564Z,89.90
2023-03-29T21:11:21.689Z,89.80
2023-03-29T21:13:48.891Z,89.80
2023-03-29T21:16:15.948Z,89.70
2023-03-29T21:18:43.540Z,89.60
2023-03-29T21:21:11.785Z,89.60
2023-03-29T21:23:39.841Z,89.60
2023-03-29T21:26:09.720Z,89.40
2023-03-29T21:28:37.855Z,89.60
2023-03-29T21:31:06.836Z,89.70
2023-03-29T21:33:38.197Z,89.60
2023-03-29T21:36:05.588Z,89.60
2023-03-29T21:38:32.752Z,89.60
2023-03-29T21:41:00.369Z,89.70
2023-03-29T21:43:28.233Z,89.70
2023-03-29T21:45:55.168Z,89.50
2023-03-29T21:48:22.742Z,89.30
2023-03-29T21:50:52.735Z,89.40
2023-03-29T21:53:19.842Z,89.00
2023-03-29T21:55:50.028Z,88.70
2023-03-29T21:58:17.314Z,88.40
2023-03-29T22:00:45.961Z,88.40
2023-03-29T22:03:14.416Z,88.30
2023-03-29T22:05:44.875Z,87.70
2023-03-29T22:08:12.113Z,87.40
2023-03-29T22:10:41.535Z,87.00
2023-03-29T22:13:13.208Z,86.70
2023-03-29T22:15:40.386Z,86.30
2023-03-29T22:18:10.317Z,86.10
2023-03-29T22:20:37.933Z,86.20
2023-03-29T22:23:04.763Z,86.10
2023-03-29T22:25:34.012Z,85.90
2023-03-29T22:28:00.861Z,85.90
2023-03-29T22:30:30.492Z,85.80
2023-03-29T22:33:00.229Z,85.80
2023-03-29T22:35:27.564Z,85.90
2023-03-29T22:37:54.509Z,86.00
2023-03-29T22:40:24.592Z,86.00
2023-03-29T22:42:51.986Z,86.20
2023-03-29T22:45:19.196Z,86.30
2023-03-29T22:47:46.452Z,86.60
2023-03-29T22:50:13.715Z,86.70
2023-03-29T22:52:43.324Z,86.30
2023-03-29T22:55:10.802Z,86.40
2023-03-29T22:57:39.175Z,86.00
2023-03-29T23:00:10.435Z,85.90
2023-03-29T23:02:37.722Z,85.10
2023-03-29T23:05:05.137Z,84.70
2023-03-29T23:07:36.702Z,84.80
2023-03-29T23:10:06.692Z,83.90
2023-03-29T23:12:36.193Z,83.90
2023-03-29T23:15:08.206Z,83.00
2023-03-29T23:17:35.888Z,82.60
2023-03-29T23:20:06.026Z,82.10
2023-03-29T23:22:34.349Z,81.60
2023-03-29T23:25:01.292Z,81.40
2023-03-29T23:27:28.464Z,81.50
2023-03-29T23:30:02.342Z,81.50
2023-03-29T23:32:29.635Z,81.80
2023-03-29T23:34:56.800Z,81.80
2023-03-29T23:37:26.249Z,82.30
2023-03-29T23:39:53.976Z,83.00
2023-03-29T23:42:21.356Z,83.60
2023-03-29T23:44:48.514Z,84.10
2023-03-29T23:47:16.562Z,84.30
2023-03-29T23:49:45.677Z,84.50
2023-03-29T23:52:13.238Z,84.60
2023-03-29T23:54:40.051Z,84.30
2023-03-29T23:57:06.998Z,84.20
2023-03-29T23:59:37.952Z,84.30
